createdAt,value
2024-04-16T00:24:23.928Z,8.15
2024-04-16T00:26:51.009Z,6.50
2024-04-16T00:29:19.016Z,7.57
2024-04-16T00:31:46.117Z,8.50
2024-04-16T00:34:13.224Z,11.07
2024-04-16T00:36:40.343Z,5.28
2024-04-16T00:39:09.394Z,9.68
2024-04-16T00:41:36.426Z,7.22
2024-04-16T00:44:03.468Z,8.75
2024-04-16T00:46:30.636Z,9.77
2024-04-16T00:48:58.387Z,11.18
2024-04-16T00:51:25.661Z,7.38
2024-04-16T00:53:52.816Z,8.73
2024-04-16T00:56:20.044Z,7.80
2024-04-16T00:58:47.922Z,8.52
2024-04-16T01:01:15.420Z,7.10
2024-04-16T01:03:44.670Z,8.18
2024-04-16T01:06:13.027Z,10.68
2024-04-16T01:08:40.100Z,10.82
2024-04-16T01:11:07.136Z,8.43
2024-04-16T01:13:34.251Z,12.25
2024-04-16T01:16:01.351Z,9.30
2024-04-16T01:18:28.473Z,11.43
2024-04-16T01:20:55.812Z,9.20
2024-04-16T01:23:22.817Z,14.20
2024-04-16T01:25:49.871Z,15.02
2024-04-16T01:28:16.913Z,9.20
2024-04-16T01:30:43.971Z,11.20
2024-04-16T01:33:11.042Z,8.05
2024-04-16T01:35:38.033Z,14.65
2024-04-16T01:38:05.310Z,11.35
2024-04-16T01:40:32.393Z,13.32
2024-04-16T01:42:59.445Z,10.77
2024-04-16T01:45:26.578Z,10.73
2024-04-16T01:47:53.658Z,9.93
2024-04-16T01:50:20.698Z,11.50
2024-04-16T01:52:47.739Z,10.43
2024-04-16T01:55:14.986Z,10.80
2024-04-16T01:57:42.067Z,11.05
2024-04-16T02:00:09.825Z,8.45
2024-04-16T02:02:37.805Z,11.48
2024-04-16T02:05:05.397Z,9.73
2024-04-16T02:07:32.747Z,9.63
2024-04-16T02:10:00.352Z,8.13
2024-04-16T02:12:27.477Z,7.68
2024-04-16T02:14:54.486Z,11.32
2024-04-16T02:17:23.150Z,11.27
2024-04-16T02:19:50.197Z,9.05
2024-04-16T02:22:17.216Z,8.50
2024-04-16T02:24:44.320Z,9.27
2024-04-16T02:27:11.362Z,10.27
2024-04-16T02:29:38.456Z,9.18
2024-04-16T02:32:05.849Z,11.52
2024-04-16T02:34:32.892Z,11.40
2024-04-16T02:36:59.991Z,12.95
2024-04-16T02:39:27.079Z,13.45
2024-04-16T02:41:54.925Z,10.80
2024-04-16T02:44:21.984Z,8.73
2024-04-16T02:46:48.998Z,12.10
2024-04-16T02:49:16.050Z,11.13
2024-04-16T02:51:43.101Z,11.75
2024-04-16T02:54:10.254Z,9.02
2024-04-16T02:56:37.385Z,8.35
2024-04-16T02:59:04.418Z,9.95
2024-04-16T03:01:33.342Z,9.80
2024-04-16T03:04:00.494Z,10.63
2024-04-16T03:06:27.616Z,10.43
2024-04-16T03:08:54.741Z,8.43
2024-04-16T03:11:21.755Z,9.13
2024-04-16T03:13:48.866Z,11.00
2024-04-16T03:16:16.001Z,11.15
2024-04-16T03:18:45.335Z,12.27
2024-04-16T03:21:12.393Z,9.02
2024-04-16T03:23:39.492Z,6.50
2024-04-16T03:26:06.528Z,15.05
2024-04-16T03:28:34.430Z,13.43
2024-04-16T03:31:01.684Z,12.65
2024-04-16T03:33:28.797Z,10.48
2024-04-16T03:35:56.355Z,10.40
2024-04-16T03:38:23.458Z,12.60
2024-04-16T03:41:03.866Z,8.07
2024-04-16T03:43:33.274Z,11.00
2024-04-16T03:46:06.454Z,11.75
2024-04-16T03:48:33.494Z,12.15
2024-04-16T03:51:00.686Z,12.55
2024-04-16T03:53:27.936Z,11.60
2024-04-16T03:56:00.178Z,8.73
2024-04-16T03:58:31.184Z,10.65
2024-04-16T04:01:09.564Z,8.68
2024-04-16T04:03:36.962Z,11.75
2024-04-16T04:06:04.156Z,16.83
2024-04-16T04:08:31.206Z,11.32
2024-04-16T04:10:58.316Z,12.68
2024-04-16T04:13:25.502Z,13.57
2024-04-16T04:15:52.611Z,12.50
2024-04-16T04:18:19.811Z,12.10
2024-04-16T04:20:48.087Z,12.95
2024-04-16T04:23:15.876Z,13.38
2024-04-16T04:25:42.993Z,13.27
2024-04-16T04:28:10.036Z,16.67
2024-04-16T04:30:38.382Z,13.18
2024-04-16T04:33:05.605Z,17.02
2024-04-16T04:35:32.850Z,11.00
2024-04-16T04:38:00.045Z,16.05
2024-04-16T04:40:27.933Z,10.82
2024-04-16T04:42:56.644Z,11.10
2024-04-16T04:45:23.791Z,13.48
2024-04-16T04:47:50.949Z,10.55
2024-04-16T04:50:18.040Z,13.43
2024-04-16T04:52:45.198Z,15.13
2024-04-16T04:55:12.337Z,11.77
2024-04-16T04:57:40.399Z,10.93
2024-04-16T05:00:08.179Z,11.73
2024-04-16T05:02:35.304Z,11.20
2024-04-16T05:05:02.376Z,10.75
2024-04-16T05:07:29.485Z,9.85
2024-04-16T05:09:56.497Z,8.23
2024-04-16T05:12:23.833Z,8.07
2024-04-16T05:14:50.860Z,7.13
2024-04-16T05:17:17.852Z,7.65
2024-04-16T05:19:44.903Z,5.85
2024-04-16T05:22:12.112Z,5.90
2024-04-16T05:24:39.168Z,4.97
2024-04-16T05:27:06.168Z,5.88
2024-04-16T05:29:33.547Z,5.78
2024-04-16T05:32:00.651Z,5.82
2024-04-16T05:34:27.719Z,9.88
2024-04-16T05:36:54.934Z,8.18
2024-04-16T05:39:22.174Z,5.72
2024-04-16T05:41:49.262Z,7.25
2024-04-16T05:44:16.405Z,7.15
2024-04-16T05:46:43.558Z,6.50
2024-04-16T05:49:10.691Z,6.65
2024-04-16T05:51:37.734Z,6.80
2024-04-16T05:54:08.126Z,6.45
2024-04-16T05:56:35.748Z,7.30
2024-04-16T05:59:02.946Z,7.55
2024-04-16T06:01:30.258Z,6.38
2024-04-16T06:03:57.323Z,6.40
2024-04-16T06:06:24.466Z,7.35
2024-04-16T06:08:51.549Z,10.57
2024-04-16T06:11:18.669Z,10.25
2024-04-16T06:13:47.974Z,9.60
2024-04-16T06:16:15.431Z,7.93
2024-04-16T06:18:43.696Z,9.57
2024-04-16T06:21:13.637Z,8.30
2024-04-16T06:23:40.790Z,6.00
2024-04-16T06:26:09.698Z,6.18
2024-04-16T06:28:37.653Z,7.45
2024-04-16T06:31:05.107Z,6.57
2024-04-16T06:33:34.746Z,4.00
2024-04-16T06:36:02.172Z,6.38
2024-04-16T06:38:29.234Z,7.25
2024-04-16T06:40:56.363Z,6.53
2024-04-16T06:43:23.491Z,8.00
2024-04-16T06:45:50.627Z,5.97
2024-04-16T06:48:17.951Z,9.18
2024-04-16T06:50:48.095Z,7.05
2024-04-16T06:53:15.291Z,7.97
2024-04-16T06:55:42.723Z,6.63
2024-04-16T06:58:10.023Z,6.70
2024-04-16T07:00:37.052Z,6.68
2024-04-16T07:03:04.528Z,7.55
2024-04-16T07:05:31.613Z,8.88
2024-04-16T07:07:58.707Z,8.85
2024-04-16T07:10:25.781Z,9.43
2024-04-16T07:12:52.826Z,8.93
2024-04-16T07:15:19.838Z,12.13
2024-04-16T07:17:47.097Z,15.23
2024-04-16T07:20:14.250Z,11.75
2024-04-16T07:22:41.317Z,12.15
2024-04-16T07:25:08.565Z,14.65
2024-04-16T07:27:35.782Z,18.80
2024-04-16T07:30:02.890Z,11.70
2024-04-16T07:32:30.230Z,11.80
2024-04-16T07:34:58.365Z,14.80
2024-04-16T07:37:26.281Z,11.93
2024-04-16T07:39:53.308Z,14.40
2024-04-16T07:42:20.362Z,18.60
2024-04-16T07:44:47.546Z,17.45
2024-04-16T07:47:15.091Z,13.02
2024-04-16T07:49:42.237Z,14.85
2024-04-16T07:52:09.339Z,12.40
2024-04-16T07:54:36.410Z,11.75
2024-04-16T07:57:03.630Z,10.10
2024-04-16T07:59:30.744Z,9.10
2024-04-16T08:01:57.830Z,13.13
2024-04-16T08:04:25.017Z,6.53
2024-04-16T08:06:52.218Z,9.35
2024-04-16T08:09:20.005Z,8.25
2024-04-16T08:11:47.118Z,5.40
2024-04-16T08:14:18.125Z,5.78
2024-04-16T08:16:45.275Z,6.68
2024-04-16T08:19:14.220Z,7.78
2024-04-16T08:21:41.416Z,5.55
2024-04-16T08:24:08.527Z,7.18
2024-04-16T08:26:35.603Z,10.25
2024-04-16T08:29:02.632Z,13.20
2024-04-16T08:31:30.033Z,8.75
2024-04-16T08:33:57.281Z,10.82
2024-04-16T08:36:24.577Z,12.10
2024-04-16T08:38:51.787Z,12.23
2024-04-16T08:41:18.862Z,14.25
2024-04-16T08:43:47.132Z,13.50
2024-04-16T08:46:15.707Z,13.45
2024-04-16T08:48:44.950Z,30.60
2024-04-16T08:51:15.075Z,16.38
2024-04-16T08:53:43.574Z,16.15
2024-04-16T08:56:11.130Z,12.13
2024-04-16T08:58:38.291Z,13.15
2024-04-16T09:01:07.751Z,13.48
2024-04-16T09:03:35.346Z,14.65
2024-04-16T09:06:05.405Z,27.63
2024-04-16T09:08:33.018Z,16.80
2024-04-16T09:11:00.322Z,18.20
2024-04-16T09:13:27.432Z,14.80
2024-04-16T09:15:54.589Z,16.98
2024-04-16T09:18:25.215Z,18.58
2024-04-16T09:20:52.318Z,15.13
2024-04-16T09:23:19.377Z,10.77
2024-04-16T09:25:46.626Z,12.48
2024-04-16T09:28:17.561Z,7.03
2024-04-16T09:30:57.137Z,8.50
2024-04-16T09:33:33.529Z,7.70
2024-04-16T09:36:11.911Z,20.08
2024-04-16T09:38:46.671Z,14.30
2024-04-16T09:41:15.306Z,16.48
2024-04-16T09:43:43.993Z,11.15
2024-04-16T09:46:13.070Z,14.25
2024-04-16T09:48:43.571Z,16.52
2024-04-16T09:51:10.848Z,14.02
2024-04-16T09:53:41.100Z,14.57
2024-04-16T09:56:10.406Z,13.02
2024-04-16T09:58:38.581Z,15.82
2024-04-16T10:01:05.882Z,20.75
2024-04-16T10:03:33.597Z,18.05
2024-04-16T10:06:00.927Z,13.15
2024-04-16T10:08:28.437Z,20.38
2024-04-16T10:11:02.520Z,17.08
2024-04-16T10:13:34.652Z,13.35
2024-04-16T10:16:02.151Z,10.52
2024-04-16T10:18:30.099Z,15.98
2024-04-16T10:21:01.568Z,16.90
2024-04-16T10:23:31.639Z,26.23
2024-04-16T10:25:59.754Z,24.50
2024-04-16T10:28:32.947Z,17.27
2024-04-16T10:31:12.918Z,27.40
2024-04-16T10:33:43.969Z,33.38
2024-04-16T10:36:16.527Z,24.63
2024-04-16T10:38:43.848Z,18.23
2024-04-16T10:41:11.029Z,20.77
2024-04-16T10:43:39.706Z,18.02
2024-04-16T10:46:07.750Z,18.27
2024-04-16T10:48:34.810Z,19.77
2024-04-16T10:51:01.963Z,17.15
2024-04-16T10:53:28.981Z,27.98
2024-04-16T10:55:56.479Z,16.55
2024-04-16T10:58:23.653Z,22.00
2024-04-16T11:00:55.095Z,15.48
2024-04-16T11:03:23.794Z,20.02
2024-04-16T11:05:50.996Z,12.95
2024-04-16T11:08:18.200Z,24.42
2024-04-16T11:10:51.588Z,32.45
2024-04-16T11:13:23.326Z,18.25
2024-04-16T11:15:52.706Z,23.27
2024-04-16T11:18:20.956Z,25.20
2024-04-16T11:20:48.802Z,23.58
2024-04-16T11:23:16.042Z,18.25
2024-04-16T11:25:48.226Z,17.58
2024-04-16T11:28:15.990Z,27.52
2024-04-16T11:30:55.311Z,20.05
2024-04-16T11:33:30.147Z,20.77
2024-04-16T11:36:10.700Z,14.57
2024-04-16T11:38:43.886Z,23.48
2024-04-16T11:41:13.533Z,18.05
2024-04-16T11:43:43.851Z,16.40
2024-04-16T11:46:13.742Z,20.27
2024-04-16T11:48:43.736Z,17.98
2024-04-16T11:51:12.837Z,17.17
2024-04-16T11:53:40.519Z,17.73
2024-04-16T11:56:11.940Z,21.15
2024-04-16T11:58:40.943Z,18.15
2024-04-16T12:01:08.343Z,14.93
2024-04-16T12:03:35.448Z,15.68
2024-04-16T12:06:02.636Z,23.35
2024-04-16T12:08:29.724Z,25.33
2024-04-16T12:10:56.938Z,17.13
2024-04-16T12:13:24.064Z,22.98
2024-04-16T12:15:51.574Z,25.13
2024-04-16T12:18:18.742Z,20.58
2024-04-16T12:20:46.383Z,22.08
2024-04-16T12:23:13.460Z,28.65
2024-04-16T12:25:40.557Z,19.05
2024-04-16T12:28:07.805Z,15.20
2024-04-16T12:30:34.903Z,29.52
2024-04-16T12:33:11.005Z,21.95
2024-04-16T12:35:43.163Z,14.98
2024-04-16T12:38:10.151Z,20.52
2024-04-16T12:40:37.774Z,29.52
2024-04-16T12:43:05.209Z,22.88
2024-04-16T12:45:32.196Z,18.73
2024-04-16T12:47:59.420Z,22.10
2024-04-16T12:50:26.532Z,21.63
2024-04-16T12:52:53.675Z,19.70
2024-04-16T12:55:20.908Z,19.23
2024-04-16T12:57:48.003Z,19.63
2024-04-16T13:00:15.056Z,20.95
2024-04-16T13:02:42.115Z,23.60
2024-04-16T13:05:09.214Z,23.55
2024-04-16T13:07:36.426Z,24.67
2024-04-16T13:10:03.535Z,16.80
2024-04-16T13:12:30.542Z,19.23
2024-04-16T13:14:57.570Z,19.15
2024-04-16T13:17:24.692Z,16.15
2024-04-16T13:19:53.867Z,21.73
2024-04-16T13:22:21.475Z,20.15
2024-04-16T13:24:48.686Z,16.48
2024-04-16T13:27:15.832Z,19.02
2024-04-16T13:29:43.168Z,19.85
2024-04-16T13:32:10.765Z,20.00
2024-04-16T13:34:38.171Z,17.13
2024-04-16T13:37:05.458Z,20.38
2024-04-16T13:39:32.604Z,15.48
2024-04-16T13:41:59.710Z,19.40
2024-04-16T13:44:26.887Z,17.25
2024-04-16T13:46:54.032Z,16.77
2024-04-16T13:49:21.204Z,21.23
2024-04-16T13:51:48.375Z,16.15
2024-04-16T13:54:15.569Z,20.45
2024-04-16T13:56:42.976Z,16.75
2024-04-16T13:59:10.282Z,18.67
2024-04-16T14:01:37.440Z,15.20
2024-04-16T14:04:04.550Z,14.93
2024-04-16T14:06:31.610Z,27.05
2024-04-16T14:09:01.429Z,16.95
2024-04-16T14:13:55.702Z,15.27
2024-04-16T14:16:23.401Z,16.50
2024-04-16T14:18:52.495Z,15.63
2024-04-16T14:21:20.127Z,15.30
2024-04-16T14:23:47.693Z,13.00
2024-04-16T14:26:17.319Z,13.35
2024-04-16T14:28:45.277Z,15.20
2024-04-16T14:31:14.366Z,13.82
2024-04-16T14:33:42.415Z,22.17
2024-04-16T14:36:09.569Z,26.05
2024-04-16T14:38:36.651Z,14.82
2024-04-16T14:41:03.727Z,14.55
2024-04-16T14:43:30.817Z,15.65
2024-04-16T14:45:57.923Z,15.65
2024-04-16T14:48:25.092Z,13.95
2024-04-16T14:50:52.213Z,22.98
2024-04-16T14:53:19.937Z,16.73
2024-04-16T14:55:50.900Z,15.90
2024-04-16T14:58:18.000Z,18.38
2024-04-16T15:00:45.610Z,23.88
2024-04-16T15:03:13.091Z,19.13
2024-04-16T15:05:41.457Z,16.77
2024-04-16T15:08:11.256Z,14.00
2024-04-16T15:13:08.313Z,13.05
2024-04-16T15:15:35.799Z,59.05
2024-04-16T15:18:03.367Z,16.73
2024-04-16T15:20:30.671Z,23.60
2024-04-16T15:23:00.730Z,20.48
2024-04-16T15:25:27.897Z,15.82
2024-04-16T15:27:55.016Z,19.55
2024-04-16T15:30:22.061Z,18.80
2024-04-16T15:32:49.255Z,20.90
2024-04-16T15:35:16.655Z,19.75
2024-04-16T15:37:45.086Z,18.88
2024-04-16T15:40:17.491Z,13.18
2024-04-16T15:42:51.405Z,16.25
2024-04-16T15:45:18.390Z,25.52
2024-04-16T15:47:45.507Z,19.85
2024-04-16T15:50:12.625Z,15.00
2024-04-16T15:52:39.715Z,21.88
2024-04-16T15:55:06.868Z,16.38
2024-04-16T15:57:34.302Z,14.73
2024-04-16T16:00:01.361Z,18.13
2024-04-16T16:02:28.557Z,21.02
2024-04-16T16:04:55.829Z,14.38
2024-04-16T16:07:23.106Z,17.08
2024-04-16T16:09:52.522Z,17.40
2024-04-16T16:12:20.216Z,16.45
2024-04-16T16:14:47.270Z,16.73
2024-04-16T16:17:14.369Z,14.10
2024-04-16T16:19:41.530Z,19.65
2024-04-16T16:22:11.343Z,23.63
2024-04-16T16:27:05.328Z,12.15
2024-04-16T16:29:32.405Z,14.00
2024-04-16T16:31:59.520Z,16.23
2024-04-16T16:34:26.588Z,15.80
2024-04-16T16:36:53.665Z,14.85
2024-04-16T16:39:20.718Z,18.63
2024-04-16T16:41:47.793Z,16.63
2024-04-16T16:44:15.626Z,18.30
2024-04-16T16:46:42.946Z,19.05
2024-04-16T16:49:10.090Z,12.15
2024-04-16T16:51:37.254Z,16.50
2024-04-16T16:54:04.460Z,12.02
2024-04-16T16:56:31.588Z,17.27
2024-04-16T16:59:01.393Z,17.75
2024-04-16T17:03:55.525Z,17.70
2024-04-16T17:06:22.646Z,17.00
2024-04-16T17:08:50.158Z,18.50
2024-04-16T17:11:17.750Z,18.85
2024-04-16T17:13:44.985Z,20.27
2024-04-16T17:16:12.193Z,17.95
2024-04-16T17:18:42.158Z,21.83
2024-04-16T17:21:09.840Z,17.38
2024-04-16T17:23:36.877Z,20.15
2024-04-16T17:26:04.724Z,15.07
2024-04-16T17:28:34.908Z,13.48
2024-04-16T17:31:04.419Z,14.68
2024-04-16T17:33:31.779Z,15.85
2024-04-16T17:35:58.900Z,13.18
2024-04-16T17:38:26.527Z,16.92
2024-04-16T17:40:54.020Z,16.75
2024-04-16T17:43:21.218Z,16.90
2024-04-16T17:45:48.692Z,18.95
2024-04-16T17:48:15.959Z,10.52
2024-04-16T17:50:43.335Z,16.45
2024-04-16T17:53:10.520Z,19.35
2024-04-16T17:55:37.615Z,15.57
2024-04-16T17:58:07.546Z,20.40
2024-04-16T18:00:37.122Z,17.83
2024-04-16T18:03:07.178Z,16.05
2024-04-16T18:05:35.759Z,20.15
2024-04-16T18:08:05.193Z,17.70
2024-04-16T18:10:32.408Z,12.23
2024-04-16T18:12:59.479Z,17.58
2024-04-16T18:15:26.674Z,15.13
2024-04-16T18:17:53.884Z,17.63
2024-04-16T18:20:21.014Z,20.73
2024-04-16T18:22:48.412Z,15.15
2024-04-16T18:25:15.739Z,14.80
2024-04-16T18:27:43.440Z,14.45
2024-04-16T18:30:10.872Z,15.38
2024-04-16T18:32:38.133Z,15.48
2024-04-16T18:35:05.968Z,14.80
2024-04-16T18:37:33.284Z,14.95
2024-04-16T18:40:00.445Z,9.48
2024-04-16T18:42:27.690Z,18.02
2024-04-16T18:44:54.734Z,17.98
2024-04-16T18:47:23.396Z,12.10
2024-04-16T18:49:51.280Z,15.55
2024-04-16T18:52:18.488Z,13.68
2024-04-16T18:54:45.590Z,18.63
2024-04-16T18:57:12.668Z,15.32
2024-04-16T18:59:39.940Z,17.30
2024-04-16T19:02:07.329Z,13.90
2024-04-16T19:04:35.615Z,13.25
2024-04-16T19:07:02.890Z,19.45
2024-04-16T19:09:29.996Z,15.35
2024-04-16T19:11:57.121Z,20.30
2024-04-16T19:14:25.520Z,17.02
2024-04-16T19:16:52.592Z,18.25
2024-04-16T19:19:20.830Z,17.55
2024-04-16T19:21:48.444Z,21.90
2024-04-16T19:24:15.511Z,15.20
2024-04-16T19:26:42.539Z,16.27
2024-04-16T19:29:10.002Z,15.93
2024-04-16T19:31:37.258Z,16.85
2024-04-16T19:34:05.176Z,19.85
2024-04-16T19:36:32.824Z,20.85
2024-04-16T19:38:59.919Z,20.20
2024-04-16T19:41:27.344Z,11.77
2024-04-16T19:43:54.920Z,13.50
2024-04-16T19:46:22.062Z,19.92
2024-04-16T19:48:49.286Z,18.23
2024-04-16T19:51:16.458Z,23.50
2024-04-16T19:53:43.537Z,24.75
2024-04-16T19:56:14.144Z,22.20
2024-04-16T19:58:41.220Z,20.85
2024-04-16T20:01:11.190Z,23.80
2024-04-16T20:03:38.518Z,18.83
2024-04-16T20:06:10.544Z,19.20
2024-04-16T20:08:38.171Z,22.10
2024-04-16T20:11:05.953Z,21.88
2024-04-16T20:13:33.963Z,23.65
2024-04-16T20:16:04.514Z,23.00
2024-04-16T20:18:31.776Z,22.00
2024-04-16T20:21:02.288Z,17.17
2024-04-16T20:23:29.660Z,19.85
2024-04-16T20:26:09.596Z,16.90
2024-04-16T20:28:38.266Z,19.83
2024-04-16T20:31:05.887Z,24.80
2024-04-16T20:33:34.242Z,19.13
2024-04-16T20:36:04.113Z,12.73
2024-04-16T20:40:59.495Z,17.33
2024-04-16T20:43:26.717Z,17.33
2024-04-16T20:45:53.925Z,17.77
2024-04-16T20:48:22.042Z,22.27
2024-04-16T20:50:55.809Z,25.35
2024-04-16T20:53:30.030Z,23.65
2024-04-16T20:55:58.938Z,19.75
2024-04-16T20:58:26.148Z,13.88
2024-04-16T21:00:54.806Z,23.58
2024-04-16T21:03:22.435Z,18.23
2024-04-16T21:05:52.501Z,20.13
2024-04-16T21:08:19.777Z,27.48
2024-04-16T21:10:47.344Z,21.90
2024-04-16T21:13:14.773Z,22.45
2024-04-16T21:15:44.688Z,22.83
2024-04-16T21:20:38.796Z,19.63
2024-04-16T21:23:05.846Z,22.88
2024-04-16T21:25:32.902Z,23.17
2024-04-16T21:27:59.963Z,22.33
2024-04-16T21:30:26.996Z,24.17
2024-04-16T21:32:54.090Z,29.80
2024-04-16T21:35:21.105Z,27.58
2024-04-16T21:37:48.323Z,19.95
2024-04-16T21:40:15.460Z,20.83
2024-04-16T21:42:42.886Z,20.85
2024-04-16T21:45:09.942Z,21.65
2024-04-16T21:47:37.157Z,30.10
2024-04-16T21:50:04.461Z,24.45
2024-04-16T21:52:31.479Z,25.95
2024-04-16T21:54:58.547Z,27.50
2024-04-16T21:57:26.836Z,17.80
2024-04-16T21:59:54.029Z,24.40
2024-04-16T22:02:21.851Z,22.52
2024-04-16T22:04:49.143Z,20.92
2024-04-16T22:07:16.251Z,22.75
2024-04-16T22:09:43.297Z,22.15
2024-04-16T22:12:10.358Z,26.92
2024-04-16T22:14:37.376Z,21.15
2024-04-16T22:17:04.453Z,18.25
2024-04-16T22:19:31.463Z,19.23
2024-04-16T22:21:58.444Z,17.02
2024-04-16T22:24:25.566Z,11.32
2024-04-16T22:26:52.702Z,21.10
2024-04-16T22:29:20.313Z,14.85
2024-04-16T22:31:47.764Z,14.60
2024-04-16T22:34:14.833Z,16.63
2024-04-16T22:36:41.818Z,11.13
2024-04-16T22:39:08.805Z,16.08
2024-04-16T22:41:36.007Z,16.60
2024-04-16T22:44:03.118Z,21.20
2024-04-16T22:46:30.824Z,24.98
2024-04-16T22:48:57.960Z,16.52
2024-04-16T22:51:25.047Z,12.68
2024-04-16T22:53:52.580Z,19.52
2024-04-16T22:56:22.362Z,12.98
2024-04-16T22:58:50.947Z,16.27
2024-04-16T23:01:17.972Z,17.92
2024-04-16T23:03:45.077Z,16.25
2024-04-16T23:06:12.116Z,16.13
2024-04-16T23:08:39.130Z,12.10
2024-04-16T23:11:06.254Z,10.20
2024-04-16T23:13:33.312Z,15.48
2024-04-16T23:16:00.404Z,21.88
2024-04-16T23:18:27.507Z,14.05
2024-04-16T23:20:54.665Z,14.98
2024-04-16T23:23:21.692Z,13.88
2024-04-16T23:25:48.866Z,17.02
2024-04-16T23:28:15.905Z,13.73
2024-04-16T23:30:42.924Z,10.45
2024-04-16T23:33:10.122Z,16.95
2024-04-16T23:35:37.193Z,18.63
2024-04-16T23:38:04.389Z,15.20
2024-04-16T23:40:31.512Z,17.08
2024-04-16T23:42:58.654Z,17.65
2024-04-16T23:45:25.666Z,18.75
2024-04-16T23:47:52.779Z,19.90
2024-04-16T23:50:19.785Z,16.80
2024-04-16T23:52:48.080Z,17.65
2024-04-16T23:55:15.698Z,16.63
2024-04-16T23:57:42.702Z,15.73
